Flight Track Log - Related Links

Times and Time Zones

All times are in EDT time to prevent confusion due to time zone crossing. See the AAL2137 flight status page for this flight to view local times or setup timezone preferences in your user account.

Time Position Orientation Groundspeed Altitude Reporting Facility
EDT Latitude Longitude Course Direction KTS MPH feet Rate Location/Type
Sun 12:56:31 PM 41.9564 -72.6661 236° Southwest 195 224 1,000  Level Boston Center
Sun 12:57:08 PM 41.9814 -72.6719 350° North 180 207 2,100 1,731 Climbing Boston Center
Sun 12:58:00 PM 41.9167 -72.9520 270° West  Level FlightAware Approximate
Sun 12:58:15 PM 41.9872 -72.7472 276° West 216 249 4,000  Level Boston Center
Sun 12:59:00 PM 41.9113 -73.0870 264° West  Level FlightAware Approximate
Sun 12:59:15 PM 41.9744 -72.8367 259° West 221 254 7,100  Level Boston Center
Sun 01:00:00 PM 41.9009 -73.2216 264° West  Level FlightAware Approximate
Sun 01:01:00 PM 41.8764 -73.3473 236° Southwest  Level FlightAware Approximate
Sun 01:04:53 PM 41.8130 -73.4220 259° West 371 427 21,600  Level FlightAware ADS-B
Sun 01:05:33 PM 41.7610 -73.4890 224° Southwest 373 429 22,900 2,000 Climbing FlightAware ADS-B
Sun 01:06:08 PM 41.7170 -73.5510 226° Southwest 381 438 24,100 2,045 Climbing FlightAware ADS-B
Sun 01:06:17 PM 41.7039 -73.5699 227° Southwest 382 440 24,400 1,920 Climbing FlightAware ADS-B
Sun 01:06:58 PM 41.6560 -73.6380 227° Southwest 385 443 25,700 2,548 Climbing FlightAware ADS-B
Sun 01:07:30 PM 41.6159 -73.6939 226° Southwest 372 428 27,500 2,903 Climbing FlightAware ADS-B
Sun 01:07:54 PM 41.5884 -73.7327 227° Southwest 28,500 2,400 Climbing FlightAware ADS-B
Sun 01:08:00 PM 41.5816 -73.7423 227° Southwest 359 413 28,700 1,765 Climbing FlightAware ADS-B
Sun 01:08:11 PM 41.5696 -73.7595 227° Southwest 360 414 29,000 1,714 Climbing FlightAware ADS-B
Sun 01:08:35 PM 41.5418 -73.7987 227° Southwest 362 417 29,700 1,091 Climbing FlightAware ADS-B
Sun 01:09:06 PM 41.5047 -73.8506 226° Southwest 366 421 30,000 277 Climbing FlightAware ADS-B
Sun 01:09:40 PM 41.4661 -73.9044 226° Southwest 366 421 30,000  Level FlightAware ADS-B
Sun 01:10:10 PM 41.4308 -73.9536 226° Southwest 369 425 30,000  Level FlightAware ADS-B
Sun 01:10:42 PM 41.3922 -74.0074 226° Southwest 370 426 30,000  Level FlightAware ADS-B
Sun 01:11:13 PM 41.3590 -74.0540 227° Southwest 372 428 30,000  Level FlightAware ADS-B
Sun 01:11:16 PM 41.3516 -74.0637 225° Southwest 372 428 30,000  Level FlightAware ADS-B
Sun 01:11:52 PM 41.3097 -74.1218 226° Southwest 372 428 30,000  Level FlightAware ADS-B
Sun 01:12:25 PM 41.2695 -74.1775 226° Southwest 373 429 30,000  Level FlightAware ADS-B
Sun 01:13:00 PM 41.2275 -74.2356 226° Southwest 374 430 30,000  Level FlightAware ADS-B
Sun 01:13:18 PM 41.2059 -74.2654 226° Southwest 375 432 30,000  Level FlightAware ADS-B
Sun 01:13:31 PM 41.1907 -74.2864 226° Southwest 375 432 30,000  Level FlightAware ADS-B
Sun 01:13:52 PM 41.1657 -74.3209 226° Southwest 375 432 30,000  Level FlightAware ADS-B
Sun 01:14:04 PM 41.1514 -74.3407 226° Southwest 373 429 30,000  Level FlightAware ADS-B
Sun 01:14:35 PM 41.1154 -74.3910 226° Southwest 371 427 30,000  Level FlightAware ADS-B
Sun 01:14:36 PM 41.1143 -74.3925 226° Southwest 375 432 30,000  Level FlightAware ADS-B
Sun 01:15:05 PM 41.0788 -74.4415 226° Southwest 371 427 30,000  Level FlightAware ADS-B
Sun 01:15:36 PM 41.0421 -74.4905 225° Southwest 371 427 30,000  Level FlightAware ADS-B
Sun 01:16:06 PM 41.0057 -74.5398 226° Southwest 369 425 30,000  Level FlightAware ADS-B
Sun 01:16:37 PM 40.9695 -74.5892 226° Southwest 369 425 30,000 -197 Level FlightAware ADS-B
Sun 01:17:07 PM 40.9338 -74.6381 226° Southwest 370 426 29,800 -500 Descending FlightAware ADS-B
Sun 01:17:37 PM 40.8968 -74.6881 226° Southwest 376 433 29,500 -554 Descending FlightAware ADS-B
Sun 01:18:12 PM 40.8548 -74.7451 226° Southwest 379 436 29,200 -462 Descending FlightAware ADS-B
Sun 01:18:42 PM 40.8174 -74.7960 226° Southwest 387 445 29,000 -419 Descending FlightAware ADS-B
Sun 01:18:55 PM 40.8029 -74.8183 229° Southwest 383 441 28,900 -558 Descending FlightAware ADS-B
Sun 01:19:25 PM 40.7737 -74.8768 237° Southwest 374 430 28,600 -492 Descending FlightAware ADS-B
Sun 01:19:56 PM 40.7465 -74.9371 239° Southwest 377 434 28,400 -492 Descending FlightAware ADS-B
Sun 01:20:26 PM 40.7191 -74.9973 239° Southwest 381 438 28,100 -387 Descending FlightAware ADS-B
Sun 01:20:58 PM 40.6908 -75.0597 239° Southwest 381 438 28,000 -95 Descending FlightAware ADS-B
Sun 01:21:29 PM 40.6624 -75.1220 239° Southwest 380 437 28,000  Level FlightAware ADS-B
Sun 01:21:59 PM 40.6352 -75.1818 239° Southwest 380 437 28,000  Level FlightAware ADS-B
Sun 01:22:30 PM 40.6075 -75.2424 239° Southwest 379 436 28,000  Level FlightAware ADS-B
Sun 01:23:01 PM 40.5798 -75.3029 239° Southwest 379 436 28,000  Level FlightAware ADS-B
Sun 01:23:31 PM 40.5525 -75.3628 239° Southwest 380 437 28,000  Level FlightAware ADS-B
Sun 01:24:03 PM 40.5236 -75.4257 239° Southwest 382 440 28,000  Level FlightAware ADS-B
Sun 01:24:35 PM 40.4945 -75.4889 239° Southwest 384 442 28,000  Level FlightAware ADS-B
Sun 01:25:05 PM 40.4665 -75.5494 239° Southwest 385 443 28,000  Level FlightAware ADS-B
Sun 01:25:35 PM 40.4386 -75.6099 239° Southwest 386 444 28,000  Level FlightAware ADS-B
Sun 01:26:09 PM 40.4075 -75.6771 239° Southwest 386 444 28,000  Level FlightAware ADS-B
Sun 01:26:39 PM 40.3795 -75.7375 239° Southwest 387 445 28,000  Level FlightAware ADS-B
Sun 01:27:16 PM 40.3449 -75.8118 239° Southwest 389 448 28,000  Level FlightAware ADS-B
Sun 01:27:47 PM 40.3166 -75.8727 239° Southwest 390 449 28,000  Level FlightAware ADS-B
Sun 01:28:19 PM 40.2865 -75.9372 239° Southwest 391 450 28,000  Level FlightAware ADS-B
Sun 01:28:50 PM 40.2569 -76.0002 238° Southwest 392 451 28,000  Level FlightAware ADS-B
Sun 01:29:21 PM 40.2270 -76.0643 239° Southwest 394 453 28,000  Level FlightAware ADS-B
Sun 01:29:53 PM 40.1970 -76.1281 238° Southwest 395 455 28,000  Level FlightAware ADS-B
Sun 01:30:30 PM 40.1609 -76.2045 238° Southwest 396 456 28,000  Level FlightAware ADS-B
Sun 01:31:02 PM 40.1310 -76.2678 238° Southwest 395 455 28,000  Level FlightAware ADS-B
Sun 01:31:32 PM 40.1019 -76.3298 238° Southwest 394 453 28,000  Level FlightAware ADS-B
Sun 01:32:05 PM 40.0716 -76.3962 239° Southwest 393 452 28,000  Level FlightAware ADS-B
Sun 01:32:42 PM 40.0371 -76.4712 239° Southwest 393 452 28,000  Level FlightAware ADS-B
Sun 01:33:15 PM 40.0059 -76.5386 239° Southwest 393 452 28,000  Level FlightAware ADS-B
Sun 01:33:45 PM 39.9770 -76.6007 239° Southwest 395 455 28,000  Level FlightAware ADS-B
Sun 01:34:17 PM 39.9469 -76.6654 239° Southwest 395 455 28,000  Level FlightAware ADS-B
Sun 01:34:48 PM 39.9181 -76.7270 239° Southwest 395 455 28,000  Level FlightAware ADS-B
Sun 01:35:18 PM 39.8897 -76.7880 239° Southwest 396 456 28,000  Level FlightAware ADS-B
Sun 01:35:49 PM 39.8600 -76.8513 239° Southwest 396 456 28,000  Level FlightAware ADS-B
Sun 01:36:25 PM 39.8252 -76.9257 239° Southwest 396 456 28,000  Level FlightAware ADS-B
Sun 01:37:00 PM 39.7920 -76.9962 239° Southwest 396 456 28,000  Level FlightAware ADS-B
Sun 01:37:33 PM 39.7603 -77.0634 238° Southwest 395 455 28,000  Level FlightAware ADS-B
Sun 01:38:05 PM 39.7298 -77.1281 239° Southwest 395 455 28,000  Level FlightAware ADS-B
Sun 01:38:37 PM 39.7001 -77.1910 238° Southwest 394 453 28,000  Level FlightAware ADS-B
Sun 01:39:11 PM 39.6673 -77.2602 238° Southwest 394 453 28,000  Level FlightAware ADS-B
Sun 01:39:43 PM 39.6369 -77.3246 239° Southwest 394 453 28,000  Level FlightAware ADS-B
Sun 01:40:13 PM 39.6080 -77.3851 238° Southwest 395 455 28,000  Level FlightAware ADS-B
Sun 01:40:46 PM 39.5763 -77.4513 238° Southwest 396 456 28,000  Level FlightAware ADS-B
Sun 01:41:19 PM 39.5447 -77.5174 238° Southwest 397 457 28,000  Level FlightAware ADS-B
Sun 01:42:06 PM 39.4987 -77.6135 238° Southwest 397 457 28,000  Level FlightAware ADS-B
Sun 01:43:18 PM 39.4340 -77.7480 238° Southwest 400 460 28,000  Level FlightAware ADS-B
Sun 01:43:58 PM 39.3960 -77.8260 238° Southwest 399 459 28,000  Level FlightAware ADS-B
Sun 01:44:33 PM 39.3620 -77.9070 242° Southwest 396 456 28,000  Level FlightAware ADS-B
Sun 01:45:03 PM 39.3380 -77.9690 243° Southwest 394 453 28,000  Level FlightAware ADS-B
Sun 01:45:43 PM 39.3060 -78.0500 243° Southwest 394 453 28,000  Level FlightAware ADS-B
Sun 01:46:23 PM 39.2730 -78.1330 243° Southwest 395 455 28,000  Level FlightAware ADS-B
Sun 01:46:58 PM 39.2420 -78.2100 243° Southwest 397 457 28,000  Level FlightAware ADS-B
Sun 01:47:38 PM 39.2090 -78.2920 243° Southwest 398 458 28,000  Level FlightAware ADS-B
Sun 01:48:18 PM 39.1740 -78.3790 243° Southwest 399 459 28,000  Level FlightAware ADS-B
Sun 01:49:03 PM 39.1390 -78.4650 242° Southwest 400 460 28,000  Level FlightAware ADS-B
Sun 01:49:33 PM 39.1120 -78.5310 242° Southwest 401 461 28,000  Level FlightAware ADS-B
Sun 01:50:08 PM 39.0810 -78.6090 243° Southwest 401 461 28,000  Level FlightAware ADS-B
Sun 01:50:48 PM 39.0470 -78.6920 242° Southwest 401 461 28,000  Level FlightAware ADS-B
Sun 01:51:18 PM 39.0200 -78.7580 242° Southwest 402 463 28,000  Level FlightAware ADS-B
Sun 01:51:53 PM 38.9900 -78.8330 243° Southwest 402 463 28,000  Level FlightAware ADS-B
Sun 01:52:23 PM 38.9650 -78.8940 242° Southwest 402 463 28,000  Level FlightAware ADS-B
Sun 01:53:03 PM 38.9300 -78.9790 242° Southwest 402 463 28,000  Level FlightAware ADS-B
Sun 01:53:33 PM 38.9050 -79.0410 243° Southwest 401 461 28,000  Level FlightAware ADS-B
Sun 01:54:03 PM 38.8790 -79.1020 241° Southwest 401 461 28,000  Level FlightAware ADS-B
Sun 01:54:38 PM 38.8480 -79.1800 243° Southwest 400 460 28,000  Level FlightAware ADS-B
Sun 01:55:18 PM 38.8270 -79.2710 254° West 395 455 28,000  Level FlightAware ADS-B
Sun 01:55:53 PM 38.8130 -79.3510 257° West 395 455 28,000  Level FlightAware ADS-B
Sun 01:56:23 PM 38.8010 -79.4140 256° West 394 453 28,000  Level FlightAware ADS-B
Sun 01:57:23 PM 38.7770 -79.5500 257° West 392 451 28,000  Level FlightAware ADS-B
Sun 01:57:53 PM 38.7640 -79.6230 257° West 390 449 28,000  Level FlightAware ADS-B
Sun 01:59:38 PM 38.7440 -79.7230 256° West 378 435 28,000  Level FlightAware ADS-B
Sun 02:00:18 PM 38.7300 -79.7970 256° West 378 435 28,000  Level FlightAware ADS-B
Sun 02:00:58 PM 38.6900 -80.0210 257° West 367 422 28,000  Level FlightAware ADS-B
Sun 02:01:38 PM 38.6730 -80.1110 256° West 361 415 28,000  Level FlightAware ADS-B
Sun 02:02:18 PM 38.6580 -80.1950 257° West 359 413 28,000  Level FlightAware ADS-B
Sun 02:02:53 PM 38.6450 -80.2640 256° West 361 415 28,000  Level FlightAware ADS-B
Sun 02:03:23 PM 38.6330 -80.3280 257° West 364 419 28,000  Level FlightAware ADS-B
Sun 02:03:58 PM 38.6180 -80.4050 256° West 365 420 28,000  Level FlightAware ADS-B
Sun 02:04:38 PM 38.6020 -80.4860 256° West 366 421 28,000  Level FlightAware ADS-B
Sun 02:05:08 PM 38.5900 -80.5500 257° West 366 421 28,000  Level FlightAware ADS-B
Sun 02:05:53 PM 38.5720 -80.6440 256° West 367 422 28,000  Level FlightAware ADS-B
Sun 02:06:38 PM 38.5550 -80.7350 257° West 364 419 28,000  Level FlightAware ADS-B
Sun 02:07:23 PM 38.5350 -80.8340 256° West 362 417 28,000  Level FlightAware ADS-B
Sun 02:07:48 PM 38.5260 -80.8820 257° West 361 415 28,000  Level FlightAware ADS-B
Sun 02:08:08 PM 38.5180 -80.9240 256° West 359 413 28,000  Level FlightAware ADS-B
Sun 02:09:03 PM 38.4960 -81.0380 256° West 355 409 28,000  Level FlightAware ADS-B
Sun 02:09:38 PM 38.4820 -81.1080 256° West 358 412 28,000 -257 Level FlightAware ADS-B
Sun 02:10:13 PM 38.4680 -81.1780 256° West 364 419 27,700 -494 Descending FlightAware ADS-B
Sun 02:11:03 PM 38.4470 -81.2840 256° West 365 420 27,300 -420 Descending FlightAware ADS-B
Sun 02:11:53 PM 38.4260 -81.3890 256° West 366 421 27,000 -333 Descending FlightAware ADS-B
Sun 02:12:33 PM 38.4090 -81.4740 256° West 365 420 26,800 -375 Descending FlightAware ADS-B
Sun 02:13:13 PM 38.3930 -81.5570 256° West 372 428 26,500 -450 Descending FlightAware ADS-B
Sun 02:13:53 PM 38.3760 -81.6420 256° West 373 429 26,200 -375 Descending FlightAware ADS-B
Sun 02:14:33 PM 38.3590 -81.7230 255° West 374 430 26,000 -160 Descending FlightAware ADS-B
Sun 02:15:08 PM 38.3420 -81.7980 254° West 375 432 26,000  Level FlightAware ADS-B
Sun 02:15:43 PM 38.3210 -81.8730 250° West 374 430 26,000  Level FlightAware ADS-B
Sun 02:16:28 PM 38.2950 -81.9660 250° West 372 428 26,000  Level FlightAware ADS-B
Sun 02:17:03 PM 38.2740 -82.0390 250° West 371 427 26,000  Level FlightAware ADS-B
Sun 02:17:43 PM 38.2520 -82.1200 251° West 371 427 26,000  Level FlightAware ADS-B
Sun 02:18:18 PM 38.2310 -82.1910 249° West 370 426 26,000  Level FlightAware ADS-B
Sun 02:19:03 PM 38.2050 -82.2850 251° West 371 427 26,000  Level FlightAware ADS-B
Sun 02:19:38 PM 38.1850 -82.3560 250° West 370 426 26,000 -171 Level FlightAware ADS-B
Sun 02:20:13 PM 38.1650 -82.4250 250° West 369 425 25,800 -462 Descending FlightAware ADS-B
Sun 02:20:43 PM 38.1460 -82.4900 250° West 374 430 25,500 -706 Descending FlightAware ADS-B
Sun 02:21:38 PM 38.1140 -82.6020 250° West 374 430 24,800 -545 Descending FlightAware ADS-B
Sun 02:22:33 PM 38.0830 -82.7070 249° West 370 426 24,500 -212 Descending FlightAware ADS-B
Sun 02:23:03 PM 38.0680 -82.7580 250° West 370 426 24,500  Level FlightAware ADS-B
Sun 02:23:43 PM 38.0470 -82.8270 249° West 370 426 24,500  Level FlightAware ADS-B
Sun 02:24:23 PM 38.0260 -82.8960 249° West 370 426 24,500  Level FlightAware ADS-B
Sun 02:24:53 PM 38.0100 -82.9480 249° West 370 426 24,500  Level FlightAware ADS-B
Sun 02:25:23 PM 37.9950 -83.0000 250° West 370 426 24,500  Level FlightAware ADS-B
Sun 02:26:03 PM 37.9740 -83.0690 249° West 370 426 24,500 -280 Level FlightAware ADS-B
Sun 02:27:10 PM 37.9218 -83.2628 251° West 358 412 24,000 -366 Descending FlightAware ADS-B
Sun 02:27:25 PM 37.9181 -83.2778 251° West 357 411 24,000  Level Indianapolis Center
Sun 02:28:27 PM 37.8819 -83.3975 249° West 364 419 24,000  Level Indianapolis Center
Sun 02:29:29 PM 37.8469 -83.5183 250° West 367 422 24,000  Level Indianapolis Center
Sun 02:34:58 PM 37.6380 -84.2110 250° West 375 432 24,000  Level FlightAware ADS-B
Sun 02:35:33 PM 37.6150 -84.2830 248° West 373 429 24,000  Level FlightAware ADS-B
Sun 02:36:14 PM 37.5893 -84.3679 249° West 372 428 24,000  Level FlightAware ADS-B
Sun 02:36:59 PM 37.5615 -84.4578 249° West 369 425 24,000  Level FlightAware ADS-B
Sun 02:37:31 PM 37.5418 -84.5213 249° West 368 423 24,000  Level FlightAware ADS-B
Sun 02:38:01 PM 37.5231 -84.5817 249° West 366 421 24,000  Level FlightAware ADS-B
Sun 02:38:32 PM 37.5039 -84.6437 249° West 366 421 24,000  Level FlightAware ADS-B
Sun 02:39:03 PM 37.4850 -84.7044 249° West 366 421 24,000  Level FlightAware ADS-B
Sun 02:39:34 PM 37.4656 -84.7671 249° West 369 425 24,000  Level FlightAware ADS-B
Sun 02:40:05 PM 37.4467 -84.8285 249° West 370 426 24,000  Level FlightAware ADS-B
Sun 02:40:40 PM 37.4250 -84.8983 249° West 371 427 24,000  Level FlightAware ADS-B
Sun 02:41:18 PM 37.4020 -84.9700 248° West 371 427 24,000  Level FlightAware ADS-B
Sun 02:41:58 PM 37.3770 -85.0500 249° West 370 426 24,000  Level FlightAware ADS-B
Sun 02:42:43 PM 37.3490 -85.1420 249° West 370 426 24,000  Level FlightAware ADS-B
Sun 02:43:23 PM 37.3260 -85.2120 248° West 370 426 24,000 2,541 Level FlightAware ADS-B
Sun 02:44:08 PM 37.2960 -85.3070 248° West 346 398 27,600 3,439 Climbing FlightAware ADS-B
Sun 02:44:45 PM 37.2727 -85.3814 249° West 349 402 28,700 1,853 Climbing FlightAware ADS-B
Sun 02:45:16 PM 37.2545 -85.4382 248° West 347 399 29,700 1,967 Climbing FlightAware ADS-B
Sun 02:45:46 PM 37.2365 -85.4949 248° West 345 397 30,700 1,742 Climbing FlightAware ADS-B
Sun 02:46:18 PM 37.2180 -85.5532 248° West 346 398 31,500 1,219 Climbing FlightAware ADS-B
Sun 02:46:50 PM 37.1987 -85.6135 248° West 352 405 32,000 476 Climbing FlightAware ADS-B
Sun 02:47:21 PM 37.1796 -85.6727 248° West 360 414 32,000  Level FlightAware ADS-B
Sun 02:48:04 PM 37.1526 -85.7568 248° West 361 415 32,000  Level FlightAware ADS-B
Sun 02:48:36 PM 37.1324 -85.8194 248° West 362 417 32,000  Level FlightAware ADS-B
Sun 02:49:11 PM 37.1104 -85.8873 248° West 362 417 32,000  Level FlightAware ADS-B
Sun 02:49:49 PM 37.0864 -85.9613 248° West 363 418 32,000  Level FlightAware ADS-B
Sun 02:50:20 PM 37.0671 -86.0211 248° West 363 418 32,000  Level FlightAware ADS-B
Sun 02:51:08 PM 37.0460 -86.1160 254° West 370 426 32,000  Level FlightAware ADS-B
Sun 02:51:58 PM 37.0290 -86.2180 258° West 368 423 32,000  Level FlightAware ADS-B
Sun 02:52:28 PM 37.0180 -86.2820 258° West 367 422 32,000  Level FlightAware ADS-B
Sun 02:53:03 PM 37.0070 -86.3490 258° West 367 422 32,000  Level FlightAware ADS-B
Sun 02:53:48 PM 36.9910 -86.4440 258° West 366 421 32,000  Level FlightAware ADS-B
Sun 02:54:28 PM 36.9770 -86.5270 258° West 366 421 32,000  Level FlightAware ADS-B
Sun 02:55:13 PM 36.9620 -86.6190 258° West 364 419 32,000  Level FlightAware ADS-B
Sun 02:55:56 PM 36.9452 -86.7153 258° West 363 418 32,000  Level FlightAware ADS-B
Sun 02:56:38 PM 36.9320 -86.7910 258° West 361 415 32,000  Level FlightAware ADS-B
Sun 02:57:18 PM 36.9190 -86.8670 258° West 361 415 32,000  Level FlightAware ADS-B
Sun 02:57:58 PM 36.9030 -86.9620 258° West 361 415 32,000  Level FlightAware ADS-B
Sun 02:58:43 PM 36.8880 -87.0490 258° West 361 415 32,000  Level FlightAware ADS-B
Sun 02:59:23 PM 36.8730 -87.1320 257° West 362 417 32,000  Level FlightAware ADS-B
Sun 03:00:08 PM 36.8570 -87.2260 258° West 363 418 32,000  Level FlightAware ADS-B
Sun 03:00:48 PM 36.8430 -87.3030 257° West 363 418 32,000  Level FlightAware ADS-B
Sun 03:01:33 PM 36.8260 -87.3980 257° West 363 418 32,000  Level FlightAware ADS-B
Sun 03:02:13 PM 36.8120 -87.4800 258° West 363 418 32,000  Level FlightAware ADS-B
Sun 03:02:53 PM 36.7980 -87.5600 258° West 363 418 32,000  Level FlightAware ADS-B
Sun 03:03:38 PM 36.7810 -87.6530 257° West 364 419 32,000  Level FlightAware ADS-B
Sun 03:04:18 PM 36.7660 -87.7370 257° West 364 419 32,000  Level FlightAware ADS-B
Sun 03:05:03 PM 36.7500 -87.8270 258° West 367 422 32,000  Level FlightAware ADS-B
Sun 03:05:43 PM 36.7340 -87.9100 256° West 367 422 32,000 -505 Level FlightAware ADS-B
Sun 03:06:38 PM 36.7140 -88.0260 258° West 369 425 31,200 -884 Descending FlightAware ADS-B
Sun 03:07:18 PM 36.6990 -88.1090 257° West 377 434 30,600 -706 Descending FlightAware ADS-B
Sun 03:08:03 PM 36.6810 -88.2030 257° West 381 438 30,200 -565 Descending FlightAware ADS-B
Sun 03:08:43 PM 36.6650 -88.2870 257° West 384 442 29,800 -706 Descending FlightAware ADS-B
Sun 03:09:28 PM 36.6470 -88.3880 258° West 384 442 29,200 -847 Descending FlightAware ADS-B
Sun 03:10:08 PM 36.6310 -88.4740 257° West 376 433 28,600 -918 Descending FlightAware ADS-B
Sun 03:10:53 PM 36.6130 -88.5650 256° West 369 425 27,900 -988 Descending FlightAware ADS-B
Sun 03:11:33 PM 36.5980 -88.6450 257° West 373 429 27,200 -640 Descending FlightAware ADS-B
Sun 03:12:08 PM 36.5860 -88.7110 257° West 373 429 27,100 -71 Descending FlightAware ADS-B
Sun 03:12:58 PM 36.5700 -88.8000 257° West 373 429 27,100  Level FlightAware ADS-B
Sun 03:13:38 PM 36.5560 -88.8710 256° West 373 429 27,100  Level FlightAware ADS-B
Sun 03:14:18 PM 36.5430 -88.9430 257° West 373 429 27,100  Level FlightAware ADS-B
Sun 03:14:58 PM 36.5300 -89.0140 257° West 373 429 27,100 -2,514 Level FlightAware ADS-B
Sun 03:15:32 PM 36.5031 -89.1592 257° West 387 445 24,000 -1,979 Descending Memphis Center
Sun 03:16:32 PM 36.4814 -89.2883 258° West 387 445 24,000  Level Memphis Center
Sun 03:17:32 PM 36.4553 -89.4100 255° West 401 461 24,000  Level Memphis Center
Sun 03:18:32 PM 36.4289 -89.5342 255° West 396 456 24,000  Level Memphis Center
Sun 03:19:32 PM 36.4025 -89.6556 255° West 384 442 24,000  Level Memphis Center
Sun 03:20:32 PM 36.3783 -89.7769 256° West 378 435 24,000  Level Memphis Center
Sun 03:21:32 PM 36.3536 -89.9008 256° West 378 435 24,000  Level Memphis Center
Sun 03:22:32 PM 36.3292 -90.0194 256° West 378 435 24,000  Level Memphis Center
Sun 03:23:32 PM 36.3044 -90.1433 256° West 378 435 24,000  Level Memphis Center
Sun 03:24:32 PM 36.2794 -90.2669 256° West 378 435 24,000  Level Memphis Center
Sun 03:25:32 PM 36.2544 -90.3853 255° West 378 435 24,000  Level Memphis Center
Sun 03:26:32 PM 36.2314 -90.5061 257° West 372 428 24,000  Level Memphis Center
Sun 03:27:32 PM 36.2042 -90.6244 254° West 372 428 24,000  Level Memphis Center
Sun 03:28:32 PM 36.1789 -90.7453 256° West 372 428 24,000  Level Memphis Center
Sun 03:29:32 PM 36.1556 -90.8633 256° West 367 422 24,000  Level Memphis Center
Sun 03:30:32 PM 36.1300 -90.9814 255° West 362 417 24,000  Level Memphis Center
Sun 03:31:32 PM 36.1042 -91.1019 255° West 357 411 24,000  Level Memphis Center
Sun 03:32:32 PM 36.0786 -91.2200 255° West 357 411 24,000  Level Memphis Center
Sun 03:33:32 PM 36.0547 -91.3403 256° West 357 411 24,000  Level Memphis Center
Sun 03:34:32 PM 36.0267 -91.4606 254° West 357 411 24,000  Level Memphis Center
Sun 03:35:32 PM 36.0003 -91.5911 256° West 357 411 24,000  Level Memphis Center
Sun 03:36:32 PM 35.9719 -91.7111 254° West 357 411 24,000  Level Memphis Center
Sun 03:37:32 PM 35.9542 -91.8058 257° West 357 411 24,000  Level Memphis Center
Sun 03:38:32 PM 35.9278 -91.9361 256° West 357 411 24,000  Level Memphis Center
Sun 03:39:32 PM 35.9033 -92.0508 255° West 357 411 24,000  Level Memphis Center
Sun 03:40:32 PM 35.8786 -92.1658 255° West 357 411 24,000  Level Memphis Center
Sun 03:41:32 PM 35.8497 -92.2828 253° West 357 411 24,000  Level Memphis Center
Sun 03:42:32 PM 35.8250 -92.3975 255° West 357 411 24,000  Level Memphis Center
Sun 03:43:32 PM 35.7981 -92.5147 254° West 357 411 24,000  Level Memphis Center
Sun 03:44:32 PM 35.7731 -92.6267 255° West 357 411 24,000  Level Memphis Center
Sun 03:45:32 PM 35.7458 -92.7433 254° West 357 411 24,000  Level Memphis Center
Sun 03:46:32 PM 35.7186 -92.8578 254° West 357 411 24,000  Level Memphis Center
Sun 03:47:32 PM 35.6933 -92.9744 255° West 357 411 24,000  Level Memphis Center
Sun 03:48:32 PM 35.6678 -93.0914 255° West 357 411 24,000  Level Memphis Center
Sun 03:49:32 PM 35.6422 -93.2181 256° West 364 419 24,000  Level Memphis Center
Sun 03:50:32 PM 35.6125 -93.3294 252° West 358 412 24,000  Level Memphis Center
Sun 03:51:32 PM 35.5822 -93.4511 253° West 347 399 24,000  Level Memphis Center
Sun 03:52:32 PM 35.5564 -93.5647 254° West 347 399 24,000  Level Memphis Center
Sun 03:53:32 PM 35.5306 -93.6811 255° West 347 399 24,000  Level Memphis Center
Sun 03:58:43 PM 35.3890 -94.2590 255° West 345 397 24,000  Level FlightAware ADS-B
Sun 03:59:48 PM 35.3160 -94.3510 226° Southwest 354 407 24,000  Level FlightAware ADS-B
Sun 04:00:23 PM 35.2750 -94.3950 221° Southwest 354 407 24,000  Level FlightAware ADS-B
Sun 04:01:13 PM 35.2130 -94.4620 221° Southwest 354 407 24,000  Level FlightAware ADS-B
Sun 04:01:48 PM 35.1680 -94.5110 222° Southwest 354 407 24,000  Level FlightAware ADS-B
Sun 04:02:33 PM 35.1180 -94.5660 222° Southwest 354 407 24,000  Level FlightAware ADS-B
Sun 04:03:18 PM 35.0680 -94.6190 221° Southwest 354 407 24,000  Level FlightAware ADS-B
Sun 04:04:18 PM 34.9890 -94.7060 222° Southwest 349 402 24,000  Level FlightAware ADS-B
Sun 04:05:03 PM 34.9390 -94.7580 220° Southwest 349 402 24,000  Level FlightAware ADS-B
Sun 04:05:53 PM 34.8870 -94.8130 221° Southwest 349 402 24,000  Level FlightAware ADS-B
Sun 04:06:33 PM 34.8210 -94.8860 222° Southwest 344 396 24,000  Level FlightAware ADS-B
Sun 04:07:03 PM 34.7870 -94.9230 222° Southwest 344 396 24,000  Level FlightAware ADS-B
Sun 04:07:58 PM 34.7190 -94.9950 221° Southwest 347 399 24,000  Level FlightAware ADS-B
Sun 04:08:28 PM 34.6840 -95.0320 221° Southwest 347 399 24,000  Level FlightAware ADS-B
Sun 04:09:18 PM 34.6240 -95.0960 221° Southwest 348 400 24,000  Level FlightAware ADS-B
Sun 04:09:58 PM 34.5830 -95.1400 221° Southwest 348 400 24,000  Level FlightAware ADS-B
Sun 04:10:43 PM 34.5160 -95.2110 221° Southwest 354 407 24,000  Level FlightAware ADS-B
Sun 04:11:28 PM 34.4610 -95.2700 221° Southwest 353 406 24,000  Level FlightAware ADS-B
Sun 04:12:08 PM 34.4120 -95.3220 221° Southwest 354 407 24,000  Level FlightAware ADS-B
Sun 04:12:53 PM 34.3560 -95.3810 221° Southwest 355 409 24,000  Level FlightAware ADS-B
Sun 04:13:18 PM 34.3300 -95.4090 222° Southwest 355 409 24,000  Level FlightAware ADS-B
Sun 04:14:13 PM 34.2610 -95.4810 221° Southwest 355 409 24,000  Level FlightAware ADS-B
Sun 04:14:53 PM 34.2190 -95.5250 221° Southwest 355 409 24,000  Level FlightAware ADS-B
Sun 04:15:33 PM 34.1770 -95.5690 221° Southwest 355 409 24,000  Level FlightAware ADS-B
Sun 04:16:13 PM 34.1070 -95.6430 221° Southwest 359 413 24,000  Level FlightAware ADS-B
Sun 04:17:03 PM 34.0500 -95.7010 220° Southwest 358 412 24,000  Level FlightAware ADS-B
Sun 04:17:43 PM 33.9960 -95.7590 222° Southwest 357 411 24,000  Level FlightAware ADS-B
Sun 04:18:28 PM 33.9380 -95.8200 221° Southwest 358 412 24,000  Level FlightAware ADS-B
Sun 04:19:08 PM 33.8870 -95.8720 220° Southwest 360 414 24,000 -706 Level FlightAware ADS-B
Sun 04:19:53 PM 33.8320 -95.9300 221° Southwest 366 421 23,000 -1,976 Descending FlightAware ADS-B
Sun 04:20:33 PM 33.7780 -95.9860 221° Southwest 370 426 21,200 -2,400 Descending FlightAware ADS-B
Sun 04:21:13 PM 33.7270 -96.0390 221° Southwest 360 414 19,800 -2,057 Descending FlightAware ADS-B
Sun 04:21:43 PM 33.6900 -96.0770 221° Southwest 355 409 18,800 -2,143 Descending FlightAware ADS-B
Sun 04:22:23 PM 33.6410 -96.1280 221° Southwest 348 400 17,300 -2,188 Descending FlightAware ADS-B
Sun 04:23:08 PM 33.5860 -96.1840 220° Southwest 338 389 15,700 -2,025 Descending FlightAware ADS-B
Sun 04:23:43 PM 33.5450 -96.2270 221° Southwest 330 380 14,600 -2,000 Descending FlightAware ADS-B
Sun 04:24:23 PM 33.5020 -96.2760 224° Southwest 323 372 13,200 -1,976 Descending FlightAware ADS-B
Sun 04:25:08 PM 33.4550 -96.3330 225° Southwest 312 359 11,800 -1,271 Descending FlightAware ADS-B
Sun 04:25:48 PM 33.4150 -96.3800 224° Southwest 277 319 11,400 -375 Descending FlightAware ADS-B
Sun 04:26:28 PM 33.3830 -96.4190 226° Southwest 260 299 11,300 -71 Descending FlightAware ADS-B
Sun 04:27:13 PM 33.3490 -96.4700 231° Southwest 262 302 11,300  Level FlightAware ADS-B
Sun 04:27:53 PM 33.3300 -96.5230 247° West 254 292 11,300 -706 Level FlightAware ADS-B
Sun 04:28:38 PM 33.3090 -96.5800 246° West 251 289 10,300 -1,371 Descending FlightAware ADS-B
Sun 04:29:03 PM 33.2970 -96.6130 246° West 248 285 9,700 -1,091 Descending FlightAware ADS-B
Sun 04:29:33 PM 33.2830 -96.6510 246° West 245 282 9,300 -800 Descending FlightAware ADS-B
Sun 04:29:48 PM 33.2770 -96.6680 247° West 245 282 9,100 -900 Descending FlightAware ADS-B
Sun 04:30:13 PM 33.2650 -96.7000 246° West 244 281 8,700 -764 Descending FlightAware ADS-B
Sun 04:30:43 PM 33.2510 -96.7360 245° Southwest 243 280 8,400 -764 Descending FlightAware ADS-B
Sun 04:31:08 PM 33.2410 -96.7660 248° West 244 281 8,000 -1,091 Descending FlightAware ADS-B
Sun 04:31:38 PM 33.2210 -96.7980 233° Southwest 243 280 7,400 -1,200 Descending FlightAware ADS-B
Sun 04:32:08 PM 33.1980 -96.8270 227° Southwest 236 272 6,800 -1,091 Descending FlightAware ADS-B
Sun 04:32:33 PM 33.1790 -96.8520 228° Southwest 229 264 6,400 -900 Descending FlightAware ADS-B
Sun 04:32:48 PM 33.1690 -96.8630 223° Southwest 222 255 6,200 -933 Descending FlightAware ADS-B
Sun 04:33:18 PM 33.1490 -96.8890 227° Southwest 208 239 5,700 -873 Descending FlightAware ADS-B
Sun 04:33:43 PM 33.1320 -96.9100 226° Southwest 191 220 5,400 -873 Descending FlightAware ADS-B
Sun 04:34:13 PM 33.1130 -96.9330 225° Southwest 186 214 4,900 -873 Descending FlightAware ADS-B
Sun 04:34:38 PM 33.1000 -96.9500 228° Southwest 173 199 4,600 -655 Descending FlightAware ADS-B
Sun 04:35:08 PM 33.0840 -96.9700 226° Southwest 165 190 4,300 -667 Descending FlightAware ADS-B
Sun 04:35:23 PM 33.0750 -96.9800 223° Southwest 162 186 4,100 -900 Descending FlightAware ADS-B
Sun 04:35:48 PM 33.0630 -96.9960 228° Southwest 162 186 3,700 -900 Descending FlightAware ADS-B
Sun 04:36:03 PM 33.0540 -97.0060 223° Southwest 166 191 3,500 -800 Descending FlightAware ADS-B
Sun 04:36:33 PM 33.0350 -97.0170 206° Southwest 161 185 3,100 -873 Descending FlightAware ADS-B
Sun 04:36:58 PM 33.0170 -97.0240 198° South 153 176 2,700 -900 Descending FlightAware ADS-B
Sun 04:37:13 PM 33.0050 -97.0250 184° South 153 176 2,500 -686 Descending FlightAware ADS-B
Sun 04:37:33 PM 32.9930 -97.0260 184° South 147 169 2,300 -600 Descending FlightAware ADS-B
Sun 04:37:53 PM 32.9790 -97.0250 177° South 132 152 2,100 -600 Descending FlightAware ADS-B
Sun 04:38:13 PM 32.9680 -97.0260 184° South 130 150 1,900 -400 Descending FlightAware ADS-B
Sun 04:38:53 PM 32.9450 -97.0260 180° South 130 150 1,700 -300 Descending FlightAware ADS-B

Login

Don't have an account? Register now (free) for customized features, flight alerts, and more!